Aérodrome :
LOGIN :

S'inscrire | Disclaimer

   EN    FR    IT 

 










Légende :    VFR   VFR Marginal   IFR   IFR Intensif   IFR Très Intensif
Visi : 
Plafond : 
>= 8 km
>= 3000ft
5 à 8 km
1000 à 3000 ft
1500m à 5 km
500 à 1000 ft
800 à 1500m
200 à 500 ft
< 800m
< 200 ft
Symboles :   Orages  Brouillard  Fortes neiges  Fortes précipitations  Vent > 20 kt
SIGMETs :   Divers  Orages  Givrage  Turbulence  Onde Orograph.  Cendres Volcan.






- Altitude de l'aérodrome : 375 ft
- Code IATA : MST


EHBK - Maastricht Aachen

DERNIER METAR :
  • 242155Z AUTO 23018KT 200V270 9999 BKN011 OVC014 10/09 Q1005

METARs EXPIRÉS :
  • 242125Z AUTO 23021KT 200V270 9999 BKN014 OVC016 11/08 Q1005 BECMG BKN017 TEMPO 7000 RADZ
  • 242055Z AUTO 23021KT 210V270 9999 FEW009 OVC014 10/08 Q1006 BECMG BKN017 TEMPO 7000 RADZ
  • 242025Z AUTO 23021KT 200V270 9999 FEW009 OVC015 10/08 Q1006 TEMPO 7000 RADZ BKN014
  • 241955Z AUTO 23022G33KT 190V260 9999 SCT014 BKN016 OVC019 10/08 Q1006 TEMPO 7000 RADZ BKN014
  • 241925Z AUTO 23020KT 200V260 9999 SCT014 BKN017 OVC020 10/08 Q1006 TEMPO 7000 RADZ BKN014

TAF TAF EHBK
Valide du 24 à 18h jusqu'au 26 à 00h UTC


241709Z 2418/2524 23020G32KT 9999 -RA BKN020
PROB40
TEMPO 2418/2420 6000 RADZ BKN012
PROB40
TEMPO 2420/2504 6000 RA -SHRA BKN008 SCT016TCU
BECMG 2500/2503 26016KT BKN020
BECMG 2515/2518 23012KT
TEMPO 2516/2524 6000 SHRA SHRAGS SCT020CB
PROB40
TEMPO 2516/2521 24018G30KT 3000 TSRAGS BKN012 SCT015CB
BECMG 2521/2524 24018G28KT
PROB40
TEMPO 2521/2524 2500 SHRASN TSRAGS BKN008 SCT012CB



MET'MAP, la Météo Aéronautique d'un coup d'oeil ! - Copyright ORBIFLY Décembre 2007 - Disclaimer

ORBIFLY MET'MAP TEAM :

Programmation & Développement : Alexandra Zaïnal
Sur une idée originale de : Baudouin d'Aumeries
Assistance à la programmation : Marc-Olivier Méhu
Soutien technique & logistique : Manuel Goepfert

Contact : metmap@orbifly.com




SOURCES & CREDITS :

   NOAA